sensor_id;sensor_type;location;lat;lon;timestamp;pressure;altitude;pressure_sealevel;temperature;humidity
9893;BME280;4985;49.092;8.542;2023-04-27T00:01:26;99455.50;;;17.94;51.91
9893;BME280;4985;49.092;8.542;2023-04-27T00:03:52;99452.81;;;17.94;51.92
9893;BME280;4985;49.092;8.542;2023-04-27T00:06:19;99449.12;;;17.95;51.92
9893;BME280;4985;49.092;8.542;2023-04-27T00:08:47;99449.12;;;17.95;51.91
9893;BME280;4985;49.092;8.542;2023-04-27T00:11:13;99443.81;;;17.95;51.90
9893;BME280;4985;49.092;8.542;2023-04-27T00:13:40;99431.13;;;17.90;51.91
9893;BME280;4985;49.092;8.542;2023-04-27T00:16:06;99439.50;;;17.94;51.90
9893;BME280;4985;49.092;8.542;2023-04-27T00:18:33;99444.84;;;17.94;51.90
9893;BME280;4985;49.092;8.542;2023-04-27T00:21:00;99437.66;;;17.94;51.91
9893;BME280;4985;49.092;8.542;2023-04-27T00:23:26;99433.38;;;17.93;51.90
9893;BME280;4985;49.092;8.542;2023-04-27T00:25:54;99431.50;;;17.94;51.90
9893;BME280;4985;49.092;8.542;2023-04-27T00:28:21;99432.13;;;17.89;51.89
9893;BME280;4985;49.092;8.542;2023-04-27T00:30:47;99428.25;;;17.92;51.90
9893;BME280;4985;49.092;8.542;2023-04-27T00:33:16;99422.72;;;17.93;51.90
9893;BME280;4985;49.092;8.542;2023-04-27T00:35:42;99419.22;;;17.93;51.90
9893;BME280;4985;49.092;8.542;2023-04-27T00:38:09;99418.41;;;17.92;51.90
9893;BME280;4985;49.092;8.542;2023-04-27T00:40:36;99406.94;;;17.92;51.90
9893;BME280;4985;49.092;8.542;2023-04-27T00:43:04;99416.78;;;17.91;51.90
9893;BME280;4985;49.092;8.542;2023-04-27T00:45:30;99414.13;;;17.91;51.88
9893;BME280;4985;49.092;8.542;2023-04-27T00:47:57;99420.47;;;17.90;51.88
9893;BME280;4985;49.092;8.542;2023-04-27T00:50:27;99421.28;;;17.91;51.90
9893;BME280;4985;49.092;8.542;2023-04-27T00:52:55;99421.47;;;17.89;51.89
9893;BME280;4985;49.092;8.542;2023-04-27T00:55:22;99424.97;;;17.90;51.89
9893;BME280;4985;49.092;8.542;2023-04-27T00:57:48;99423.31;;;17.89;51.90
9893;BME280;4985;49.092;8.542;2023-04-27T01:00:16;99421.47;;;17.89;51.90
9893;BME280;4985;49.092;8.542;2023-04-27T01:02:43;99419.66;;;17.90;51.90
9893;BME280;4985;49.092;8.542;2023-04-27T01:05:10;99419.84;;;17.88;51.89
9893;BME280;4985;49.092;8.542;2023-04-27T01:07:37;99427.81;;;17.88;51.90
9893;BME280;4985;49.092;8.542;2023-04-27T01:10:05;99425.97;;;17.89;51.90
9893;BME280;4985;49.092;8.542;2023-04-27T01:12:32;99425.16;;;17.88;51.89
9893;BME280;4985;49.092;8.542;2023-04-27T01:14:58;99427.81;;;17.88;51.89
9893;BME280;4985;49.092;8.542;2023-04-27T01:17:26;99426.19;;;17.87;51.91
9893;BME280;4985;49.092;8.542;2023-04-27T01:19:53;99428.84;;;17.87;51.90
9893;BME280;4985;49.092;8.542;2023-04-27T01:22:21;99432.34;;;17.88;51.89
9893;BME280;4985;49.092;8.542;2023-04-27T01:24:48;99431.50;;;17.87;51.89
9893;BME280;4985;49.092;8.542;2023-04-27T01:27:15;99426.19;;;17.87;51.89
9893;BME280;4985;49.092;8.542;2023-04-27T01:29:42;99424.56;;;17.86;51.89
9893;BME280;4985;49.092;8.542;2023-04-27T01:32:08;99428.84;;;17.87;51.88
9893;BME280;4985;49.092;8.542;2023-04-27T01:34:36;99428.25;;;17.85;51.89
9893;BME280;4985;49.092;8.542;2023-04-27T01:37:03;99435.22;;;17.86;51.88
9893;BME280;4985;49.092;8.542;2023-04-27T01:39:29;99433.56;;;17.85;51.87
9893;BME280;4985;49.092;8.542;2023-04-27T01:41:57;99428.25;;;17.85;51.88
9893;BME280;4985;49.092;8.542;2023-04-27T01:44:24;99429.28;;;17.84;51.89
9893;BME280;4985;49.092;8.542;2023-04-27T01:46:50;99429.06;;;17.86;51.88
9893;BME280;4985;49.092;8.542;2023-04-27T01:49:17;99427.44;;;17.85;51.87
9893;BME280;4985;49.092;8.542;2023-04-27T01:51:43;99421.28;;;17.84;51.87
9893;BME280;4985;49.092;8.542;2023-04-27T01:54:10;99422.09;;;17.85;51.87
9893;BME280;4985;49.092;8.542;2023-04-27T01:56:37;99424.97;;;17.83;51.87
9893;BME280;4985;49.092;8.542;2023-04-27T01:59:05;99422.31;;;17.83;51.87
9893;BME280;4985;49.092;8.542;2023-04-27T02:01:31;99424.97;;;17.83;51.85
9893;BME280;4985;49.092;8.542;2023-04-27T02:03:58;99427.63;;;17.83;51.87
9893;BME280;4985;49.092;8.542;2023-04-27T02:06:25;99425.19;;;17.82;51.85
9893;BME280;4985;49.092;8.542;2023-04-27T02:08:52;99434.00;;;17.82;51.87
9893;BME280;4985;49.092;8.542;2023-04-27T02:11:18;99427.03;;;17.81;51.86
9893;BME280;4985;49.092;8.542;2023-04-27T02:13:45;99429.69;;;17.81;51.86
9893;BME280;4985;49.092;8.542;2023-04-27T02:16:12;99431.53;;;17.81;51.87
9893;BME280;4985;49.092;8.542;2023-04-27T02:18:39;99436.87;;;17.81;51.89
9893;BME280;4985;49.092;8.542;2023-04-27T02:21:09;99444.84;;;17.81;51.88
9893;BME280;4985;49.092;8.542;2023-04-27T02:23:36;99441.38;;;17.80;51.86
9893;BME280;4985;49.092;8.542;2023-04-27T02:26:03;99437.87;;;17.80;51.87
9893;BME280;4985;49.092;8.542;2023-04-27T02:28:30;99447.50;;;17.81;51.89
9893;BME280;4985;49.092;8.542;2023-04-27T02:30:57;99445.06;;;17.79;51.89
9893;BME280;4985;49.092;8.542;2023-04-27T02:33:25;99445.06;;;17.79;51.89
9893;BME280;4985;49.092;8.542;2023-04-27T02:35:51;99441.59;;;17.79;51.89
9893;BME280;4985;49.092;8.542;2023-04-27T02:38:18;99444.25;;;17.79;51.88
9893;BME280;4985;49.092;8.542;2023-04-27T02:40:44;99446.09;;;17.78;51.87
9893;BME280;4985;49.092;8.542;2023-04-27T02:43:11;99440.94;;;17.77;51.88
9893;BME280;4985;49.092;8.542;2023-04-27T02:45:37;99445.44;;;17.76;51.88
9893;BME280;4985;49.092;8.542;2023-04-27T02:48:04;99451.59;;;17.77;51.88
9893;BME280;4985;49.092;8.542;2023-04-27T02:50:32;99447.09;;;17.77;51.88
9893;BME280;4985;49.092;8.542;2023-04-27T02:52:59;99445.44;;;17.76;51.88
9893;BME280;4985;49.092;8.542;2023-04-27T02:55:25;99440.12;;;17.76;51.88
9893;BME280;4985;49.092;8.542;2023-04-27T02:57:53;99443.81;;;17.75;51.89
9893;BME280;4985;49.092;8.542;2023-04-27T03:00:19;99443.81;;;17.75;51.88
9893;BME280;4985;49.092;8.542;2023-04-27T03:02:46;99449.12;;;17.75;51.89
9893;BME280;4985;49.092;8.542;2023-04-27T03:05:13;99447.50;;;17.74;51.87
9893;BME280;4985;49.092;8.542;2023-04-27T03:07:40;99447.50;;;17.74;51.88
9893;BME280;4985;49.092;8.542;2023-04-27T03:10:08;99445.06;;;17.72;51.87
9893;BME280;4985;49.092;8.542;2023-04-27T03:12:34;99447.72;;;17.72;51.87
9893;BME280;4985;49.092;8.542;2023-04-27T03:15:01;99447.50;;;17.74;51.88
9893;BME280;4985;49.092;8.542;2023-04-27T03:17:28;99447.72;;;17.72;51.87
9893;BME280;4985;49.092;8.542;2023-04-27T03:19:55;99445.06;;;17.72;51.87
9893;BME280;4985;49.092;8.542;2023-04-27T03:22:21;99438.09;;;17.71;51.88
9893;BME280;4985;49.092;8.542;2023-04-27T03:24:49;99443.41;;;17.71;51.88
9893;BME280;4985;49.092;8.542;2023-04-27T03:27:16;99445.25;;;17.71;51.88
9893;BME280;4985;49.092;8.542;2023-04-27T03:29:42;99442.59;;;17.71;51.89
9893;BME280;4985;49.092;8.542;2023-04-27T03:32:09;99440.75;;;17.71;51.90
9893;BME280;4985;49.092;8.542;2023-04-27T03:34:36;99432.97;;;17.70;51.89
9893;BME280;4985;49.092;8.542;2023-04-27T03:37:02;99444.66;;;17.69;51.89
9893;BME280;4985;49.092;8.542;2023-04-27T03:39:29;99453.47;;;17.69;51.89
9893;BME280;4985;49.092;8.542;2023-04-27T03:41:57;99455.31;;;17.69;51.91
9893;BME280;4985;49.092;8.542;2023-04-27T03:44:23;99444.66;;;17.69;51.90
9893;BME280;4985;49.092;8.542;2023-04-27T03:46:50;99449.12;;;17.68;51.90
9893;BME280;4985;49.092;8.542;2023-04-27T03:49:16;99450.16;;;17.67;51.91
9893;BME280;4985;49.092;8.542;2023-04-27T03:51:43;99452.81;;;17.67;51.93
9893;BME280;4985;49.092;8.542;2023-04-27T03:54:09;99452.00;;;17.67;51.91
9893;BME280;4985;49.092;8.542;2023-04-27T03:56:36;99452.19;;;17.65;51.92
9893;BME280;4985;49.092;8.542;2023-04-27T03:59:04;99455.66;;;17.66;51.91
9893;BME280;4985;49.092;8.542;2023-04-27T04:01:31;99450.34;;;17.66;51.92
9893;BME280;4985;49.092;8.542;2023-04-27T04:03:57;99439.69;;;17.66;51.93
9893;BME280;4985;49.092;8.542;2023-04-27T04:06:24;99440.09;;;17.63;51.93
9893;BME280;4985;49.092;8.542;2023-04-27T04:08:52;99442.56;;;17.64;51.94
9893;BME280;4985;49.092;8.542;2023-04-27T04:11:19;99445.44;;;17.63;51.94
9893;BME280;4985;49.092;8.542;2023-04-27T04:13:45;99452.37;;;17.64;51.94
9893;BME280;4985;49.092;8.542;2023-04-27T04:16:13;99446.25;;;17.63;51.95
9893;BME280;4985;49.092;8.542;2023-04-27T04:18:40;99449.94;;;17.62;51.96
9893;BME280;4985;49.092;8.542;2023-04-27T04:21:08;99453.41;;;17.63;51.95
9893;BME280;4985;49.092;8.542;2023-04-27T04:23:34;99452.81;;;17.61;51.96
9893;BME280;4985;49.092;8.542;2023-04-27T04:26:01;99450.97;;;17.61;51.97
9893;BME280;4985;49.092;8.542;2023-04-27T04:28:28;99447.06;;;17.57;51.95
9893;BME280;4985;49.092;8.542;2023-04-27T04:30:55;99457.31;;;17.60;51.98
9893;BME280;4985;49.092;8.542;2023-04-27T04:33:24;99451.97;;;17.60;51.97
9893;BME280;4985;49.092;8.542;2023-04-27T04:35:51;99456.50;;;17.60;51.96
9893;BME280;4985;49.092;8.542;2023-04-27T04:38:18;99451.16;;;17.60;51.96
9893;BME280;4985;49.092;8.542;2023-04-27T04:40:45;99456.50;;;17.60;51.97
9893;BME280;4985;49.092;8.542;2023-04-27T04:43:11;99450.34;;;17.59;51.97
9893;BME280;4985;49.092;8.542;2023-04-27T04:45:38;99449.53;;;17.59;51.98
9893;BME280;4985;49.092;8.542;2023-04-27T04:48:05;99454.03;;;17.58;51.96
9893;BME280;4985;49.092;8.542;2023-04-27T04:50:32;99458.53;;;17.58;51.96
9893;BME280;4985;49.092;8.542;2023-04-27T04:53:00;99460.37;;;17.57;51.97
9893;BME280;4985;49.092;8.542;2023-04-27T04:55:26;99462.22;;;17.57;51.97
9893;BME280;4985;49.092;8.542;2023-04-27T04:57:53;99462.22;;;17.57;51.99
9893;BME280;4985;49.092;8.542;2023-04-27T05:00:20;99466.72;;;17.56;51.98
9893;BME280;4985;49.092;8.542;2023-04-27T05:02:47;99462.41;;;17.55;52.00
9893;BME280;4985;49.092;8.542;2023-04-27T05:05:14;99471.25;;;17.56;52.00
9893;BME280;4985;49.092;8.542;2023-04-27T05:07:42;99459.75;;;17.55;52.00
9893;BME280;4985;49.092;8.542;2023-04-27T05:10:09;99455.44;;;17.54;52.01
9893;BME280;4985;49.092;8.542;2023-04-27T05:12:35;99459.75;;;17.55;51.99
9893;BME280;4985;49.092;8.542;2023-04-27T05:15:03;99462.22;;;17.57;51.97
9893;BME280;4985;49.092;8.542;2023-04-27T05:17:29;99464.91;;;17.57;51.97
9893;BME280;4985;49.092;8.542;2023-04-27T05:19:56;99469.41;;;17.56;51.97
9893;BME280;4985;49.092;8.542;2023-04-27T05:22:23;99463.25;;;17.56;51.96
9893;BME280;4985;49.092;8.542;2023-04-27T05:24:50;99469.41;;;17.56;51.96
9893;BME280;4985;49.092;8.542;2023-04-27T05:27:17;99469.56;;;17.55;51.97
9893;BME280;4985;49.092;8.542;2023-04-27T05:29:44;99476.75;;;17.54;51.98
9893;BME280;4985;49.092;8.542;2023-04-27T05:32:10;99478.59;;;17.54;51.98
9893;BME280;4985;49.092;8.542;2023-04-27T05:34:37;99475.91;;;17.54;51.99
9893;BME280;4985;49.092;8.542;2023-04-27T05:37:03;99483.91;;;17.54;51.99
9893;BME280;4985;49.092;8.542;2023-04-27T05:39:30;99482.28;;;17.53;52.00
9893;BME280;4985;49.092;8.542;2023-04-27T05:41:58;99483.09;;;17.53;52.00
9893;BME280;4985;49.092;8.542;2023-04-27T05:44:26;99488.41;;;17.53;51.99
9893;BME280;4985;49.092;8.542;2023-04-27T05:46:53;99496.19;;;17.55;51.98
9893;BME280;4985;49.092;8.542;2023-04-27T05:49:20;99494.56;;;17.54;51.98
9893;BME280;4985;49.092;8.542;2023-04-27T05:51:47;99491.06;;;17.53;51.98
9893;BME280;4985;49.092;8.542;2023-04-27T05:54:14;99491.28;;;17.52;51.98
9893;BME280;4985;49.092;8.542;2023-04-27T05:56:40;99496.59;;;17.52;52.00
9893;BME280;4985;49.092;8.542;2023-04-27T05:59:08;99499.28;;;17.52;52.00
9893;BME280;4985;49.092;8.542;2023-04-27T06:01:35;99493.13;;;17.51;52.02
9893;BME280;4985;49.092;8.542;2023-04-27T06:04:02;99496.59;;;17.52;52.03
9893;BME280;4985;49.092;8.542;2023-04-27T06:06:30;99493.75;;;17.46;52.03
9893;BME280;4985;49.092;8.542;2023-04-27T06:08:57;99503.78;;;17.51;52.04
9893;BME280;4985;49.092;8.542;2023-04-27T06:11:24;99507.66;;;17.49;52.05
9893;BME280;4985;49.092;8.542;2023-04-27T06:13:51;99510.94;;;17.51;52.06
9893;BME280;4985;49.092;8.542;2023-04-27T06:16:19;99517.50;;;17.48;52.07
9893;BME280;4985;49.092;8.542;2023-04-27T06:18:46;99513.00;;;17.49;52.09
9893;BME280;4985;49.092;8.542;2023-04-27T06:21:12;99518.31;;;17.49;52.09
9893;BME280;4985;49.092;8.542;2023-04-27T06:23:39;99517.50;;;17.48;52.11
9893;BME280;4985;49.092;8.542;2023-04-27T06:26:05;99517.50;;;17.48;52.12
9893;BME280;4985;49.092;8.542;2023-04-27T06:28:32;99515.03;;;17.46;52.11
9893;BME280;4985;49.092;8.542;2023-04-27T06:30:59;99520.37;;;17.46;52.13
9893;BME280;4985;49.092;8.542;2023-04-27T06:33:27;99522.00;;;17.48;52.13
9893;BME280;4985;49.092;8.542;2023-04-27T06:35:54;99523.84;;;17.47;52.14
9893;BME280;4985;49.092;8.542;2023-04-27T06:38:20;99530.19;;;17.46;52.13
9893;BME280;4985;49.092;8.542;2023-04-27T06:40:49;99525.69;;;17.46;52.15
9893;BME280;4985;49.092;8.542;2023-04-27T06:43:16;99529.16;;;17.47;52.15
9893;BME280;4985;49.092;8.542;2023-04-27T06:45:43;99535.50;;;17.46;52.15
9893;BME280;4985;49.092;8.542;2023-04-27T06:48:10;99524.62;;;17.41;52.16
9893;BME280;4985;49.092;8.542;2023-04-27T06:50:38;99536.34;;;17.46;52.17
9893;BME280;4985;49.092;8.542;2023-04-27T06:53:04;99535.50;;;17.46;52.18
9893;BME280;4985;49.092;8.542;2023-04-27T06:55:31;99531.00;;;17.46;52.21
9893;BME280;4985;49.092;8.542;2023-04-27T06:57:57;99532.03;;;17.45;52.21
9893;BME280;4985;49.092;8.542;2023-04-27T07:00:24;99529.37;;;17.45;52.22
9893;BME280;4985;49.092;8.542;2023-04-27T07:02:51;99525.69;;;17.46;52.23
9893;BME280;4985;49.092;8.542;2023-04-27T07:05:18;99526.50;;;17.47;52.22
9893;BME280;4985;49.092;8.542;2023-04-27T07:07:45;99524.44;;;17.42;52.24
9893;BME280;4985;49.092;8.542;2023-04-27T07:10:12;99526.50;;;17.47;52.23
9893;BME280;4985;49.092;8.542;2023-04-27T07:12:39;99525.69;;;17.46;52.23
9893;BME280;4985;49.092;8.542;2023-04-27T07:15:07;99529.97;;;17.48;52.23
9893;BME280;4985;49.092;8.542;2023-04-27T07:17:34;99534.28;;;17.49;52.22
9893;BME280;4985;49.092;8.542;2023-04-27T07:20:01;99534.28;;;17.49;52.23
9893;BME280;4985;49.092;8.542;2023-04-27T07:22:28;99530.81;;;17.48;52.23
9893;BME280;4985;49.092;8.542;2023-04-27T07:24:56;99534.28;;;17.49;52.23
9893;BME280;4985;49.092;8.542;2023-04-27T07:27:22;99532.62;;;17.48;52.24
9893;BME280;4985;49.092;8.542;2023-04-27T07:29:50;99527.31;;;17.48;52.24
9893;BME280;4985;49.092;8.542;2023-04-27T07:32:17;99525.69;;;17.46;52.25
9893;BME280;4985;49.092;8.542;2023-04-27T07:34:44;99527.31;;;17.48;52.26
9893;BME280;4985;49.092;8.542;2023-04-27T07:37:10;99523.63;;;17.49;52.25
9893;BME280;4985;49.092;8.542;2023-04-27T07:39:37;99532.62;;;17.48;52.25
9893;BME280;4985;49.092;8.542;2023-04-27T07:42:05;99530.81;;;17.48;52.25
9893;BME280;4985;49.092;8.542;2023-04-27T07:44:31;99522.19;;;17.46;52.26
9893;BME280;4985;49.092;8.542;2023-04-27T07:46:58;99525.69;;;17.46;52.26
9893;BME280;4985;49.092;8.542;2023-04-27T07:49:28;99521.19;;;17.47;52.26
9893;BME280;4985;49.092;8.542;2023-04-27T07:51:54;99526.50;;;17.47;52.27
9893;BME280;4985;49.092;8.542;2023-04-27T07:54:21;99527.31;;;17.48;52.27
9893;BME280;4985;49.092;8.542;2023-04-27T07:56:48;99524.66;;;17.48;52.27
9893;BME280;4985;49.092;8.542;2023-04-27T07:59:17;99519.34;;;17.48;52.25
9893;BME280;4985;49.092;8.542;2023-04-27T08:01:43;99516.69;;;17.48;52.25
9893;BME280;4985;49.092;8.542;2023-04-27T08:04:10;99518.31;;;17.49;52.25
9893;BME280;4985;49.092;8.542;2023-04-27T08:06:37;99515.66;;;17.49;52.26
9893;BME280;4985;49.092;8.542;2023-04-27T08:09:04;99514.63;;;17.50;52.25
9893;BME280;4985;49.092;8.542;2023-04-27T08:11:31;99509.31;;;17.50;52.26
9893;BME280;4985;49.092;8.542;2023-04-27T08:13:57;99509.31;;;17.50;52.24
9893;BME280;4985;49.092;8.542;2023-04-27T08:16:25;99526.09;;;17.50;52.24
9893;BME280;4985;49.092;8.542;2023-04-27T08:18:52;99503.16;;;17.49;52.25
9893;BME280;4985;49.092;8.542;2023-04-27T08:21:19;99511.16;;;17.49;52.26
9893;BME280;4985;49.092;8.542;2023-04-27T08:23:46;99511.97;;;17.50;52.28
9893;BME280;4985;49.092;8.542;2023-04-27T08:26:13;99510.31;;;17.49;52.27
9893;BME280;4985;49.092;8.542;2023-04-27T08:28:40;99507.66;;;17.49;52.29
9893;BME280;4985;49.092;8.542;2023-04-27T08:31:07;99511.97;;;17.50;52.29
9893;BME280;4985;49.092;8.542;2023-04-27T08:33:35;99508.47;;;17.49;52.28
9893;BME280;4985;49.092;8.542;2023-04-27T08:36:02;99516.25;;;17.51;52.28
9893;BME280;4985;49.092;8.542;2023-04-27T08:38:29;99516.25;;;17.51;52.27
9893;BME280;4985;49.092;8.542;2023-04-27T08:40:55;99510.12;;;17.50;52.28
9893;BME280;4985;49.092;8.542;2023-04-27T08:43:22;99503.97;;;17.50;52.32
9893;BME280;4985;49.092;8.542;2023-04-27T08:45:48;99502.34;;;17.49;52.32
9893;BME280;4985;49.092;8.542;2023-04-27T08:48:16;99503.97;;;17.50;52.34
9893;BME280;4985;49.092;8.542;2023-04-27T08:50:44;99499.47;;;17.50;52.34
9893;BME280;4985;49.092;8.542;2023-04-27T08:53:16;99504.78;;;17.50;52.35
9893;BME280;4985;49.092;8.542;2023-04-27T08:55:43;99497.41;;;17.52;52.34
9893;BME280;4985;49.092;8.542;2023-04-27T08:58:09;99506.44;;;17.51;52.33
9893;BME280;4985;49.092;8.542;2023-04-27T09:00:37;99502.12;;;17.50;52.37
9893;BME280;4985;49.092;8.542;2023-04-27T09:03:05;99504.78;;;17.50;52.38
9893;BME280;4985;49.092;8.542;2023-04-27T09:05:32;99505.63;;;17.51;52.38
9893;BME280;4985;49.092;8.542;2023-04-27T09:08:01;99511.75;;;17.51;52.38
9893;BME280;4985;49.092;8.542;2023-04-27T09:10:29;99519.53;;;17.53;52.37
9893;BME280;4985;49.092;8.542;2023-04-27T09:12:57;99514.22;;;17.53;52.37
9893;BME280;4985;49.092;8.542;2023-04-27T09:15:24;99508.88;;;17.53;52.37
9893;BME280;4985;49.092;8.542;2023-04-27T09:17:54;99511.34;;;17.54;52.37
9893;BME280;4985;49.092;8.542;2023-04-27T09:20:21;99509.50;;;17.55;52.36
9893;BME280;4985;49.092;8.542;2023-04-27T09:22:51;99511.34;;;17.54;52.37
9893;BME280;4985;49.092;8.542;2023-04-27T09:25:25;99511.56;;;17.53;52.40
9893;BME280;4985;49.092;8.542;2023-04-27T09:27:52;99511.75;;;17.51;52.44
9893;BME280;4985;49.092;8.542;2023-04-27T09:30:19;99528.53;;;17.52;52.49
9893;BME280;4985;49.092;8.542;2023-04-27T09:32:50;99522.41;;;17.51;52.50
9893;BME280;4985;49.092;8.542;2023-04-27T09:35:20;99523.22;;;17.52;52.51
9893;BME280;4985;49.092;8.542;2023-04-27T09:37:48;99511.56;;;17.53;52.50
9893;BME280;4985;49.092;8.542;2023-04-27T09:40:17;99507.03;;;17.53;52.50
9893;BME280;4985;49.092;8.542;2023-04-27T09:42:45;99516.66;;;17.54;52.51
9893;BME280;4985;49.092;8.542;2023-04-27T09:45:12;99512.16;;;17.55;52.51
9893;BME280;4985;49.092;8.542;2023-04-27T09:47:39;99505.84;;;17.56;52.51
9893;BME280;4985;49.092;8.542;2023-04-27T09:50:07;99499.50;;;17.57;52.49
9893;BME280;4985;49.092;8.542;2023-04-27T09:52:34;99499.28;;;17.58;52.47
9893;BME280;4985;49.092;8.542;2023-04-27T09:55:02;99500.09;;;17.59;52.47
9893;BME280;4985;49.092;8.542;2023-04-27T09:57:36;99496.41;;;17.60;52.46
9893;BME280;4985;49.092;8.542;2023-04-27T10:00:18;99499.91;;;17.60;52.47
9893;BME280;4985;49.092;8.542;2023-04-27T10:02:56;99505.03;;;17.62;52.48
9893;BME280;4985;49.092;8.542;2023-04-27T10:05:41;99500.31;;;17.64;52.45
9893;BME280;4985;49.092;8.542;2023-04-27T10:08:09;99504.59;;;17.65;52.43
9893;BME280;4985;49.092;8.542;2023-04-27T10:10:46;99506.25;;;17.66;52.44
9893;BME280;4985;49.092;8.542;2023-04-27T10:13:20;99502.75;;;17.65;52.46
9893;BME280;4985;49.092;8.542;2023-04-27T10:15:49;99497.03;;;17.62;52.47
9893;BME280;4985;49.092;8.542;2023-04-27T10:18:26;99501.94;;;17.65;52.47
9893;BME280;4985;49.092;8.542;2023-04-27T10:20:54;99501.94;;;17.65;52.53
9893;BME280;4985;49.092;8.542;2023-04-27T10:23:22;99500.31;;;17.64;52.56
9893;BME280;4985;49.092;8.542;2023-04-27T10:25:49;99492.31;;;17.64;52.59
9893;BME280;4985;49.092;8.542;2023-04-27T10:28:16;99494.97;;;17.64;52.61
9893;BME280;4985;49.092;8.542;2023-04-27T10:30:44;99493.94;;;17.65;52.61
9893;BME280;4985;49.092;8.542;2023-04-27T10:33:15;99488.41;;;17.66;52.61
9893;BME280;4985;49.092;8.542;2023-04-27T10:35:43;99482.91;;;17.68;52.60
9893;BME280;4985;49.092;8.542;2023-04-27T10:38:18;99493.56;;;17.68;52.62
9893;BME280;4985;49.092;8.542;2023-04-27T10:40:54;99496.22;;;17.68;52.64
9893;BME280;4985;49.092;8.542;2023-04-27T10:43:27;99493.56;;;17.68;52.65
9893;BME280;4985;49.092;8.542;2023-04-27T10:45:54;99494.59;;;17.67;52.70
9893;BME280;4985;49.092;8.542;2023-04-27T10:48:22;99495.41;;;17.67;52.72
9893;BME280;4985;49.092;8.542;2023-04-27T10:50:50;99488.88;;;17.70;52.71
9893;BME280;4985;49.092;8.542;2023-04-27T10:53:16;99494.62;;;17.73;52.69
9893;BME280;4985;49.092;8.542;2023-04-27T10:55:43;99489.28;;;17.73;52.65
9893;BME280;4985;49.092;8.542;2023-04-27T10:58:09;99485.38;;;17.76;52.64
9893;BME280;4985;49.092;8.542;2023-04-27T11:00:39;99485.38;;;17.76;52.63
9893;BME280;4985;49.092;8.542;2023-04-27T11:03:11;99481.69;;;17.77;52.63
9893;BME280;4985;49.092;8.542;2023-04-27T11:05:41;99484.38;;;17.77;52.63
9893;BME280;4985;49.092;8.542;2023-04-27T11:08:09;99469.63;;;17.74;52.63
9893;BME280;4985;49.092;8.542;2023-04-27T11:10:38;99481.31;;;17.80;52.62
9893;BME280;4985;49.092;8.542;2023-04-27T11:13:07;99479.47;;;17.81;52.61
9893;BME280;4985;49.092;8.542;2023-04-27T11:15:42;99481.91;;;17.82;52.61
9893;BME280;4985;49.092;8.542;2023-04-27T11:18:08;99473.13;;;17.82;52.63
9893;BME280;4985;49.092;8.542;2023-04-27T11:20:36;99476.59;;;17.82;52.64
9893;BME280;4985;49.092;8.542;2023-04-27T11:23:04;99476.59;;;17.82;52.65
9893;BME280;4985;49.092;8.542;2023-04-27T11:25:31;99476.59;;;17.82;52.68
9893;BME280;4985;49.092;8.542;2023-04-27T11:27:57;99476.81;;;17.81;52.72
9893;BME280;4985;49.092;8.542;2023-04-27T11:30:24;99483.78;;;17.82;52.75
9893;BME280;4985;49.092;8.542;2023-04-27T11:32:50;99486.44;;;17.82;52.78
9893;BME280;4985;49.092;8.542;2023-04-27T11:35:17;99477.41;;;17.83;52.79
9893;BME280;4985;49.092;8.542;2023-04-27T11:37:55;99480.69;;;17.85;52.78
9893;BME280;4985;49.092;8.542;2023-04-27T11:40:25;99471.66;;;17.86;52.75
9893;BME280;4985;49.092;8.542;2023-04-27T11:42:56;99474.94;;;17.88;52.76
9893;BME280;4985;49.092;8.542;2023-04-27T11:45:24;99468.78;;;17.87;52.75
9893;BME280;4985;49.092;8.542;2023-04-27T11:47:52;99467.59;;;17.90;52.73
9893;BME280;4985;49.092;8.542;2023-04-27T11:50:19;99460.59;;;17.89;52.72
9893;BME280;4985;49.092;8.542;2023-04-27T11:52:48;99454.06;;;17.91;52.71
9893;BME280;4985;49.092;8.542;2023-04-27T11:55:15;99464.28;;;17.94;52.69
9893;BME280;4985;49.092;8.542;2023-04-27T11:57:43;99455.28;;;17.95;52.67
9893;BME280;4985;49.092;8.542;2023-04-27T12:00:11;99447.06;;;17.97;52.66
9893;BME280;4985;49.092;8.542;2023-04-27T12:02:39;99442.56;;;17.97;52.64
9893;BME280;4985;49.092;8.542;2023-04-27T12:05:06;99451.38;;;17.98;52.64
9893;BME280;4985;49.092;8.542;2023-04-27T12:07:33;99445.03;;;17.99;52.63
9893;BME280;4985;49.092;8.542;2023-04-27T12:10:00;99453.81;;;17.99;52.64
9893;BME280;4985;49.092;8.542;2023-04-27T12:12:27;99442.78;;;17.96;52.64
9893;BME280;4985;49.092;8.542;2023-04-27T12:14:55;99448.31;;;18.01;52.66
9893;BME280;4985;49.092;8.542;2023-04-27T12:17:23;99444.63;;;18.02;52.65
9893;BME280;4985;49.092;8.542;2023-04-27T12:19:49;99439.09;;;18.03;52.65
9893;BME280;4985;49.092;8.542;2023-04-27T12:22:16;99442.34;;;18.06;52.66
9893;BME280;4985;49.092;8.542;2023-04-27T12:24:42;99431.69;;;18.06;52.67
9893;BME280;4985;49.092;8.542;2023-04-27T12:27:09;99435.19;;;18.06;52.67
9893;BME280;4985;49.092;8.542;2023-04-27T12:29:36;99434.16;;;18.07;52.69
9893;BME280;4985;49.092;8.542;2023-04-27T12:32:04;99432.09;;;18.09;52.65
9893;BME280;4985;49.092;8.542;2023-04-27T12:34:32;99426.56;;;18.11;52.64
9893;BME280;4985;49.092;8.542;2023-04-27T12:36:58;99429.03;;;18.12;52.63
9893;BME280;4985;49.092;8.542;2023-04-27T12:39:25;99416.53;;;18.13;52.62
9893;BME280;4985;49.092;8.542;2023-04-27T12:41:52;99415.72;;;18.12;52.63
9893;BME280;4985;49.092;8.542;2023-04-27T12:44:19;99411.59;;;18.10;52.65
9893;BME280;4985;49.092;8.542;2023-04-27T12:46:46;99420.00;;;18.13;52.68
9893;BME280;4985;49.092;8.542;2023-04-27T12:49:15;99416.31;;;18.14;52.68
9893;BME280;4985;49.092;8.542;2023-04-27T12:51:42;99420.84;;;18.14;52.69
9893;BME280;4985;49.092;8.542;2023-04-27T12:54:09;99419.81;;;18.15;52.71
9893;BME280;4985;49.092;8.542;2023-04-27T12:56:37;99414.47;;;18.15;52.71
9893;BME280;4985;49.092;8.542;2023-04-27T12:59:03;99421.44;;;18.16;52.75
9893;BME280;4985;49.092;8.542;2023-04-27T13:01:30;99413.66;;;18.14;52.76
9893;BME280;4985;49.092;8.542;2023-04-27T13:03:58;99413.44;;;18.16;52.79
9893;BME280;4985;49.092;8.542;2023-04-27T13:06:27;99409.75;;;18.17;52.81
9893;BME280;4985;49.092;8.542;2023-04-27T13:08:55;99409.75;;;18.17;52.81
9893;BME280;4985;49.092;8.542;2023-04-27T13:11:22;99410.34;;;18.19;52.81
9893;BME280;4985;49.092;8.542;2023-04-27T13:13:48;99404.81;;;18.20;52.80
9893;BME280;4985;49.092;8.542;2023-04-27T13:16:15;99408.28;;;18.21;52.79
9893;BME280;4985;49.092;8.542;2023-04-27T13:18:43;99402.75;;;18.22;52.77
9893;BME280;4985;49.092;8.542;2023-04-27T13:21:13;99405.22;;;18.24;52.78
9893;BME280;4985;49.092;8.542;2023-04-27T13:23:42;99397.03;;;18.25;52.76